sensor_id;sensor_type;location;lat;lon;timestamp;P1;durP1;ratioP1;P2;durP2;ratioP2
56239;SDS011;42154;51.992;5.896;2023-04-24T00:00:01;4.70;;;4.30;;
56239;SDS011;42154;51.992;5.896;2023-04-24T00:02:31;3.83;;;3.27;;
56239;SDS011;42154;51.992;5.896;2023-04-24T00:04:57;5.82;;;5.25;;
56239;SDS011;42154;51.992;5.896;2023-04-24T00:07:28;6.28;;;5.30;;
56239;SDS011;42154;51.992;5.896;2023-04-24T00:09:54;7.25;;;5.70;;
56239;SDS011;42154;51.992;5.896;2023-04-24T00:12:20;6.70;;;5.97;;
56239;SDS011;42154;51.992;5.896;2023-04-24T00:14:46;5.68;;;5.18;;
56239;SDS011;42154;51.992;5.896;2023-04-24T00:17:12;7.28;;;5.55;;
56239;SDS011;42154;51.992;5.896;2023-04-24T00:19:37;5.22;;;4.72;;
56239;SDS011;42154;51.992;5.896;2023-04-24T00:22:03;6.13;;;4.82;;
56239;SDS011;42154;51.992;5.896;2023-04-24T00:24:29;6.65;;;5.80;;
56239;SDS011;42154;51.992;5.896;2023-04-24T00:26:55;5.20;;;4.70;;
56239;SDS011;42154;51.992;5.896;2023-04-24T00:29:21;3.78;;;3.42;;
56239;SDS011;42154;51.992;5.896;2023-04-24T00:31:46;3.30;;;3.10;;
56239;SDS011;42154;51.992;5.896;2023-04-24T00:34:12;3.22;;;2.90;;
56239;SDS011;42154;51.992;5.896;2023-04-24T00:36:38;2.08;;;1.85;;
56239;SDS011;42154;51.992;5.896;2023-04-24T00:39:05;3.33;;;2.17;;
56239;SDS011;42154;51.992;5.896;2023-04-24T00:41:33;1.95;;;1.75;;
56239;SDS011;42154;51.992;5.896;2023-04-24T00:44:00;1.80;;;1.70;;
56239;SDS011;42154;51.992;5.896;2023-04-24T00:46:26;1.90;;;1.70;;
56239;SDS011;42154;51.992;5.896;2023-04-24T00:48:52;2.30;;;2.10;;
56239;SDS011;42154;51.992;5.896;2023-04-24T00:51:18;2.50;;;1.92;;
56239;SDS011;42154;51.992;5.896;2023-04-24T00:53:45;2.95;;;1.95;;
56239;SDS011;42154;51.992;5.896;2023-04-24T00:56:10;2.78;;;2.47;;
56239;SDS011;42154;51.992;5.896;2023-04-24T00:58:36;2.50;;;2.30;;
56239;SDS011;42154;51.992;5.896;2023-04-24T01:01:02;3.30;;;3.00;;
56239;SDS011;42154;51.992;5.896;2023-04-24T01:03:32;3.13;;;2.72;;
56239;SDS011;42154;51.992;5.896;2023-04-24T01:05:58;2.67;;;2.47;;
56239;SDS011;42154;51.992;5.896;2023-04-24T01:08:24;3.70;;;3.40;;
56239;SDS011;42154;51.992;5.896;2023-04-24T01:10:53;5.20;;;4.03;;
56239;SDS011;42154;51.992;5.896;2023-04-24T01:13:19;5.13;;;4.63;;
56239;SDS011;42154;51.992;5.896;2023-04-24T01:15:46;5.85;;;5.28;;
56239;SDS011;42154;51.992;5.896;2023-04-24T01:18:12;8.38;;;6.40;;
56239;SDS011;42154;51.992;5.896;2023-04-24T01:20:39;8.88;;;7.85;;
56239;SDS011;42154;51.992;5.896;2023-04-24T01:23:06;10.80;;;8.85;;
56239;SDS011;42154;51.992;5.896;2023-04-24T01:25:33;12.07;;;9.95;;
56239;SDS011;42154;51.992;5.896;2023-04-24T01:27:59;16.60;;;11.90;;
56239;SDS011;42154;51.992;5.896;2023-04-24T01:30:25;16.85;;;12.27;;
56239;SDS011;42154;51.992;5.896;2023-04-24T01:32:52;17.15;;;12.70;;
56239;SDS011;42154;51.992;5.896;2023-04-24T01:35:18;14.90;;;11.50;;
56239;SDS011;42154;51.992;5.896;2023-04-24T01:37:45;21.27;;;13.98;;
56239;SDS011;42154;51.992;5.896;2023-04-24T01:40:11;10.73;;;8.88;;
56239;SDS011;42154;51.992;5.896;2023-04-24T01:42:36;11.65;;;9.63;;
56239;SDS011;42154;51.992;5.896;2023-04-24T01:45:03;11.23;;;7.90;;
56239;SDS011;42154;51.992;5.896;2023-04-24T01:47:33;7.85;;;6.38;;
56239;SDS011;42154;51.992;5.896;2023-04-24T01:49:58;8.80;;;6.10;;
56239;SDS011;42154;51.992;5.896;2023-04-24T01:52:24;7.30;;;5.70;;
56239;SDS011;42154;51.992;5.896;2023-04-24T01:54:50;6.10;;;5.50;;
56239;SDS011;42154;51.992;5.896;2023-04-24T01:57:18;6.75;;;5.25;;
56239;SDS011;42154;51.992;5.896;2023-04-24T01:59:43;7.38;;;6.10;;
56239;SDS011;42154;51.992;5.896;2023-04-24T02:02:09;6.93;;;6.13;;
56239;SDS011;42154;51.992;5.896;2023-04-24T02:04:35;6.45;;;5.05;;
56239;SDS011;42154;51.992;5.896;2023-04-24T02:07:00;8.60;;;6.95;;
56239;SDS011;42154;51.992;5.896;2023-04-24T02:09:26;7.10;;;6.15;;
56239;SDS011;42154;51.992;5.896;2023-04-24T02:11:52;8.15;;;6.63;;
56239;SDS011;42154;51.992;5.896;2023-04-24T02:14:18;8.68;;;6.75;;
56239;SDS011;42154;51.992;5.896;2023-04-24T02:16:43;11.13;;;9.05;;
56239;SDS011;42154;51.992;5.896;2023-04-24T02:19:09;10.80;;;9.02;;
56239;SDS011;42154;51.992;5.896;2023-04-24T02:21:35;11.30;;;9.25;;
56239;SDS011;42154;51.992;5.896;2023-04-24T02:24:01;13.30;;;9.75;;
56239;SDS011;42154;51.992;5.896;2023-04-24T02:26:27;14.90;;;11.48;;
56239;SDS011;42154;51.992;5.896;2023-04-24T02:28:53;20.23;;;15.85;;
56239;SDS011;42154;51.992;5.896;2023-04-24T02:31:19;17.90;;;13.02;;
56239;SDS011;42154;51.992;5.896;2023-04-24T02:33:46;19.50;;;15.57;;
56239;SDS011;42154;51.992;5.896;2023-04-24T02:36:12;24.80;;;19.73;;
56239;SDS011;42154;51.992;5.896;2023-04-24T02:38:39;25.95;;;20.52;;
56239;SDS011;42154;51.992;5.896;2023-04-24T02:41:05;25.70;;;20.30;;
56239;SDS011;42154;51.992;5.896;2023-04-24T02:43:32;26.45;;;20.17;;
56239;SDS011;42154;51.992;5.896;2023-04-24T02:45:58;24.88;;;20.08;;
56239;SDS011;42154;51.992;5.896;2023-04-24T02:48:24;22.15;;;17.75;;
56239;SDS011;42154;51.992;5.896;2023-04-24T02:50:50;26.98;;;19.35;;
56239;SDS011;42154;51.992;5.896;2023-04-24T02:53:16;28.13;;;20.95;;
56239;SDS011;42154;51.992;5.896;2023-04-24T02:55:42;24.30;;;19.35;;
56239;SDS011;42154;51.992;5.896;2023-04-24T02:58:07;22.33;;;16.98;;
56239;SDS011;42154;51.992;5.896;2023-04-24T03:00:33;24.83;;;18.50;;
56239;SDS011;42154;51.992;5.896;2023-04-24T03:02:59;23.08;;;18.80;;
56239;SDS011;42154;51.992;5.896;2023-04-24T03:05:25;22.80;;;18.77;;
56239;SDS011;42154;51.992;5.896;2023-04-24T03:07:52;22.70;;;16.88;;
56239;SDS011;42154;51.992;5.896;2023-04-24T03:10:20;18.88;;;14.65;;
56239;SDS011;42154;51.992;5.896;2023-04-24T03:12:47;19.70;;;15.25;;
56239;SDS011;42154;51.992;5.896;2023-04-24T03:15:13;18.75;;;16.25;;
56239;SDS011;42154;51.992;5.896;2023-04-24T03:17:40;18.33;;;15.88;;
56239;SDS011;42154;51.992;5.896;2023-04-24T03:20:07;21.42;;;15.93;;
56239;SDS011;42154;51.992;5.896;2023-04-24T03:22:34;21.92;;;17.25;;
56239;SDS011;42154;51.992;5.896;2023-04-24T03:25:02;22.65;;;17.20;;
56239;SDS011;42154;51.992;5.896;2023-04-24T03:27:29;20.20;;;15.43;;
56239;SDS011;42154;51.992;5.896;2023-04-24T03:32:35;18.17;;;14.68;;
56239;SDS011;42154;51.992;5.896;2023-04-24T03:35:01;24.80;;;17.67;;
56239;SDS011;42154;51.992;5.896;2023-04-24T03:37:28;23.77;;;19.30;;
56239;SDS011;42154;51.992;5.896;2023-04-24T03:40:17;21.55;;;15.85;;
56239;SDS011;42154;51.992;5.896;2023-04-24T03:42:42;27.75;;;20.92;;
56239;SDS011;42154;51.992;5.896;2023-04-24T03:45:08;22.70;;;17.40;;
56239;SDS011;42154;51.992;5.896;2023-04-24T03:47:37;23.30;;;18.33;;
56239;SDS011;42154;51.992;5.896;2023-04-24T03:50:04;23.75;;;19.15;;
56239;SDS011;42154;51.992;5.896;2023-04-24T03:52:32;30.42;;;23.55;;
56239;SDS011;42154;51.992;5.896;2023-04-24T03:54:58;26.75;;;21.85;;
56239;SDS011;42154;51.992;5.896;2023-04-24T03:57:24;29.77;;;23.80;;
56239;SDS011;42154;51.992;5.896;2023-04-24T04:00:02;32.80;;;23.58;;
56239;SDS011;42154;51.992;5.896;2023-04-24T04:02:39;29.67;;;22.92;;
56239;SDS011;42154;51.992;5.896;2023-04-24T04:05:07;32.10;;;24.90;;
56239;SDS011;42154;51.992;5.896;2023-04-24T04:07:33;35.13;;;27.77;;
56239;SDS011;42154;51.992;5.896;2023-04-24T04:09:59;37.97;;;28.88;;
56239;SDS011;42154;51.992;5.896;2023-04-24T04:12:25;35.65;;;27.58;;
56239;SDS011;42154;51.992;5.896;2023-04-24T04:14:51;39.20;;;30.00;;
56239;SDS011;42154;51.992;5.896;2023-04-24T04:17:18;35.30;;;27.60;;
56239;SDS011;42154;51.992;5.896;2023-04-24T04:19:43;42.05;;;31.50;;
56239;SDS011;42154;51.992;5.896;2023-04-24T04:22:09;35.13;;;27.13;;
56239;SDS011;42154;51.992;5.896;2023-04-24T04:24:44;37.63;;;29.67;;
56239;SDS011;42154;51.992;5.896;2023-04-24T04:27:11;43.20;;;30.00;;
56239;SDS011;42154;51.992;5.896;2023-04-24T04:30:03;38.33;;;28.13;;
56239;SDS011;42154;51.992;5.896;2023-04-24T04:32:36;31.88;;;24.90;;
56239;SDS011;42154;51.992;5.896;2023-04-24T04:35:03;39.25;;;29.40;;
56239;SDS011;42154;51.992;5.896;2023-04-24T04:37:34;37.58;;;28.42;;
56239;SDS011;42154;51.992;5.896;2023-04-24T04:40:26;30.67;;;25.05;;
56239;SDS011;42154;51.992;5.896;2023-04-24T04:42:58;35.05;;;26.77;;
56239;SDS011;42154;51.992;5.896;2023-04-24T04:45:27;31.50;;;25.35;;
56239;SDS011;42154;51.992;5.896;2023-04-24T04:48:24;37.72;;;27.70;;
56239;SDS011;42154;51.992;5.896;2023-04-24T04:50:50;33.20;;;26.10;;
56239;SDS011;42154;51.992;5.896;2023-04-24T04:53:17;33.30;;;25.60;;
56239;SDS011;42154;51.992;5.896;2023-04-24T04:55:42;31.58;;;24.75;;
56239;SDS011;42154;51.992;5.896;2023-04-24T04:58:19;38.58;;;28.15;;
56239;SDS011;42154;51.992;5.896;2023-04-24T05:00:47;31.52;;;25.35;;
56239;SDS011;42154;51.992;5.896;2023-04-24T05:03:23;31.27;;;24.40;;
56239;SDS011;42154;51.992;5.896;2023-04-24T05:05:55;35.85;;;25.70;;
56239;SDS011;42154;51.992;5.896;2023-04-24T05:08:23;30.65;;;23.48;;
56239;SDS011;42154;51.992;5.896;2023-04-24T05:10:48;26.60;;;21.95;;
56239;SDS011;42154;51.992;5.896;2023-04-24T05:13:14;28.52;;;22.00;;
56239;SDS011;42154;51.992;5.896;2023-04-24T05:15:40;27.85;;;22.23;;
56239;SDS011;42154;51.992;5.896;2023-04-24T05:18:06;28.23;;;21.92;;
56239;SDS011;42154;51.992;5.896;2023-04-24T05:20:32;27.73;;;21.60;;
56239;SDS011;42154;51.992;5.896;2023-04-24T05:22:58;21.77;;;18.15;;
56239;SDS011;42154;51.992;5.896;2023-04-24T05:25:25;21.20;;;17.73;;
56239;SDS011;42154;51.992;5.896;2023-04-24T05:27:56;24.70;;;19.50;;
56239;SDS011;42154;51.992;5.896;2023-04-24T05:30:22;24.63;;;19.70;;
56239;SDS011;42154;51.992;5.896;2023-04-24T05:32:49;25.17;;;20.13;;
56239;SDS011;42154;51.992;5.896;2023-04-24T05:35:14;22.98;;;19.30;;
56239;SDS011;42154;51.992;5.896;2023-04-24T05:37:40;27.83;;;20.63;;
56239;SDS011;42154;51.992;5.896;2023-04-24T05:40:07;23.73;;;19.17;;
56239;SDS011;42154;51.992;5.896;2023-04-24T05:42:34;21.35;;;17.77;;
56239;SDS011;42154;51.992;5.896;2023-04-24T05:44:59;19.63;;;15.57;;
56239;SDS011;42154;51.992;5.896;2023-04-24T05:47:25;21.00;;;17.67;;
56239;SDS011;42154;51.992;5.896;2023-04-24T05:49:52;19.40;;;16.95;;
56239;SDS011;42154;51.992;5.896;2023-04-24T05:52:18;17.65;;;15.10;;
56239;SDS011;42154;51.992;5.896;2023-04-24T05:54:47;19.35;;;15.80;;
56239;SDS011;42154;51.992;5.896;2023-04-24T05:57:18;16.10;;;13.00;;
56239;SDS011;42154;51.992;5.896;2023-04-24T06:00:03;17.75;;;14.85;;
56239;SDS011;42154;51.992;5.896;2023-04-24T06:02:38;15.00;;;12.13;;
56239;SDS011;42154;51.992;5.896;2023-04-24T06:05:07;14.25;;;10.80;;
56239;SDS011;42154;51.992;5.896;2023-04-24T06:07:33;12.80;;;11.32;;
56239;SDS011;42154;51.992;5.896;2023-04-24T06:10:03;15.15;;;11.18;;
56239;SDS011;42154;51.992;5.896;2023-04-24T06:12:36;16.70;;;12.65;;
56239;SDS011;42154;51.992;5.896;2023-04-24T06:17:53;15.25;;;11.98;;
56239;SDS011;42154;51.992;5.896;2023-04-24T06:20:19;13.00;;;10.45;;
56239;SDS011;42154;51.992;5.896;2023-04-24T06:22:45;13.07;;;10.65;;
56239;SDS011;42154;51.992;5.896;2023-04-24T06:25:11;11.85;;;10.32;;
56239;SDS011;42154;51.992;5.896;2023-04-24T06:27:37;12.07;;;9.95;;
56239;SDS011;42154;51.992;5.896;2023-04-24T06:30:02;13.60;;;9.88;;
56239;SDS011;42154;51.992;5.896;2023-04-24T06:32:29;9.32;;;8.20;;
56239;SDS011;42154;51.992;5.896;2023-04-24T06:34:55;13.60;;;9.98;;
56239;SDS011;42154;51.992;5.896;2023-04-24T06:37:21;11.18;;;8.90;;
56239;SDS011;42154;51.992;5.896;2023-04-24T06:39:47;10.05;;;8.18;;
56239;SDS011;42154;51.992;5.896;2023-04-24T06:42:13;8.15;;;7.07;;
56239;SDS011;42154;51.992;5.896;2023-04-24T06:44:42;8.50;;;6.97;;
56239;SDS011;42154;51.992;5.896;2023-04-24T06:47:08;9.00;;;7.05;;
56239;SDS011;42154;51.992;5.896;2023-04-24T06:49:38;10.43;;;7.70;;
56239;SDS011;42154;51.992;5.896;2023-04-24T06:52:05;7.15;;;5.70;;
56239;SDS011;42154;51.992;5.896;2023-04-24T06:54:31;5.72;;;5.13;;
56239;SDS011;42154;51.992;5.896;2023-04-24T06:56:57;7.13;;;5.35;;
56239;SDS011;42154;51.992;5.896;2023-04-24T06:59:25;6.22;;;4.65;;
56239;SDS011;42154;51.992;5.896;2023-04-24T07:01:51;6.00;;;4.47;;
56239;SDS011;42154;51.992;5.896;2023-04-24T07:04:17;5.47;;;4.50;;
56239;SDS011;42154;51.992;5.896;2023-04-24T07:06:46;4.97;;;4.10;;
56239;SDS011;42154;51.992;5.896;2023-04-24T07:09:12;3.55;;;3.25;;
56239;SDS011;42154;51.992;5.896;2023-04-24T07:11:39;5.05;;;3.80;;
56239;SDS011;42154;51.992;5.896;2023-04-24T07:14:06;4.40;;;3.67;;
56239;SDS011;42154;51.992;5.896;2023-04-24T07:16:32;4.45;;;3.58;;
56239;SDS011;42154;51.992;5.896;2023-04-24T07:18:57;3.75;;;2.60;;
56239;SDS011;42154;51.992;5.896;2023-04-24T07:21:23;3.05;;;2.60;;
56239;SDS011;42154;51.992;5.896;2023-04-24T07:23:50;2.50;;;2.28;;
56239;SDS011;42154;51.992;5.896;2023-04-24T07:26:16;5.93;;;2.95;;
56239;SDS011;42154;51.992;5.896;2023-04-24T07:28:42;2.67;;;2.28;;
56239;SDS011;42154;51.992;5.896;2023-04-24T07:31:08;2.58;;;2.33;;
56239;SDS011;42154;51.992;5.896;2023-04-24T07:33:33;2.22;;;2.00;;
56239;SDS011;42154;51.992;5.896;2023-04-24T07:36:01;3.50;;;2.80;;
56239;SDS011;42154;51.992;5.896;2023-04-24T07:38:29;3.63;;;2.22;;
56239;SDS011;42154;51.992;5.896;2023-04-24T07:40:55;2.63;;;2.15;;
56239;SDS011;42154;51.992;5.896;2023-04-24T07:43:20;3.65;;;2.28;;
56239;SDS011;42154;51.992;5.896;2023-04-24T07:45:47;3.58;;;2.97;;
56239;SDS011;42154;51.992;5.896;2023-04-24T07:48:13;5.63;;;3.63;;
56239;SDS011;42154;51.992;5.896;2023-04-24T07:50:41;6.35;;;4.70;;
56239;SDS011;42154;51.992;5.896;2023-04-24T07:53:07;5.82;;;4.53;;
56239;SDS011;42154;51.992;5.896;2023-04-24T07:55:33;8.65;;;6.45;;
56239;SDS011;42154;51.992;5.896;2023-04-24T07:57:58;8.73;;;6.57;;
56239;SDS011;42154;51.992;5.896;2023-04-24T08:00:24;8.80;;;6.55;;
56239;SDS011;42154;51.992;5.896;2023-04-24T08:02:50;9.57;;;6.07;;
56239;SDS011;42154;51.992;5.896;2023-04-24T08:05:16;10.18;;;7.47;;
56239;SDS011;42154;51.992;5.896;2023-04-24T08:07:42;8.38;;;6.38;;
56239;SDS011;42154;51.992;5.896;2023-04-24T08:10:09;11.32;;;8.23;;
56239;SDS011;42154;51.992;5.896;2023-04-24T08:12:36;12.40;;;8.00;;
56239;SDS011;42154;51.992;5.896;2023-04-24T08:15:02;11.52;;;6.95;;
56239;SDS011;42154;51.992;5.896;2023-04-24T08:17:28;12.15;;;8.50;;
56239;SDS011;42154;51.992;5.896;2023-04-24T08:19:54;12.68;;;7.50;;
56239;SDS011;42154;51.992;5.896;2023-04-24T08:22:26;13.43;;;7.97;;
56239;SDS011;42154;51.992;5.896;2023-04-24T08:24:52;12.50;;;8.75;;
56239;SDS011;42154;51.992;5.896;2023-04-24T08:27:18;13.18;;;7.50;;
56239;SDS011;42154;51.992;5.896;2023-04-24T08:29:44;13.25;;;8.63;;
56239;SDS011;42154;51.992;5.896;2023-04-24T08:32:10;11.70;;;8.55;;
56239;SDS011;42154;51.992;5.896;2023-04-24T08:34:36;12.00;;;8.20;;
56239;SDS011;42154;51.992;5.896;2023-04-24T08:37:02;13.95;;;8.98;;
56239;SDS011;42154;51.992;5.896;2023-04-24T08:39:28;19.75;;;11.23;;
56239;SDS011;42154;51.992;5.896;2023-04-24T08:41:54;13.70;;;9.65;;
56239;SDS011;42154;51.992;5.896;2023-04-24T08:44:21;18.00;;;9.68;;
56239;SDS011;42154;51.992;5.896;2023-04-24T08:46:47;14.75;;;9.50;;
56239;SDS011;42154;51.992;5.896;2023-04-24T08:49:14;17.58;;;10.05;;
56239;SDS011;42154;51.992;5.896;2023-04-24T08:51:42;16.40;;;8.93;;
56239;SDS011;42154;51.992;5.896;2023-04-24T08:54:09;17.17;;;10.57;;
56239;SDS011;42154;51.992;5.896;2023-04-24T08:56:37;14.45;;;9.77;;
56239;SDS011;42154;51.992;5.896;2023-04-24T08:59:05;12.00;;;7.63;;
56239;SDS011;42154;51.992;5.896;2023-04-24T09:01:32;12.45;;;7.93;;
56239;SDS011;42154;51.992;5.896;2023-04-24T09:04:00;11.85;;;6.75;;
56239;SDS011;42154;51.992;5.896;2023-04-24T09:06:28;10.20;;;6.75;;
56239;SDS011;42154;51.992;5.896;2023-04-24T09:08:57;7.82;;;5.45;;
56239;SDS011;42154;51.992;5.896;2023-04-24T09:11:29;9.45;;;5.20;;
56239;SDS011;42154;51.992;5.896;2023-04-24T09:13:56;9.77;;;5.40;;
56239;SDS011;42154;51.992;5.896;2023-04-24T09:16:22;10.98;;;5.35;;
56239;SDS011;42154;51.992;5.896;2023-04-24T09:18:50;10.52;;;4.80;;
56239;SDS011;42154;51.992;5.896;2023-04-24T09:21:17;11.55;;;5.28;;
56239;SDS011;42154;51.992;5.896;2023-04-24T09:23:45;10.50;;;4.78;;
56239;SDS011;42154;51.992;5.896;2023-04-24T09:26:11;13.55;;;5.20;;
56239;SDS011;42154;51.992;5.896;2023-04-24T09:28:38;10.73;;;4.20;;
56239;SDS011;42154;51.992;5.896;2023-04-24T09:31:11;11.48;;;4.63;;
56239;SDS011;42154;51.992;5.896;2023-04-24T09:33:39;10.75;;;3.63;;
56239;SDS011;42154;51.992;5.896;2023-04-24T09:36:08;13.65;;;4.00;;
56239;SDS011;42154;51.992;5.896;2023-04-24T09:38:34;15.68;;;4.38;;
56239;SDS011;42154;51.992;5.896;2023-04-24T09:41:02;11.98;;;3.30;;
56239;SDS011;42154;51.992;5.896;2023-04-24T09:43:29;11.52;;;3.20;;
56239;SDS011;42154;51.992;5.896;2023-04-24T09:45:56;10.85;;;3.50;;
56239;SDS011;42154;51.992;5.896;2023-04-24T09:48:33;9.23;;;3.08;;
56239;SDS011;42154;51.992;5.896;2023-04-24T09:51:01;12.23;;;3.47;;
56239;SDS011;42154;51.992;5.896;2023-04-24T09:53:29;10.57;;;3.70;;
56239;SDS011;42154;51.992;5.896;2023-04-24T09:56:10;10.07;;;3.10;;
56239;SDS011;42154;51.992;5.896;2023-04-24T09:58:38;9.18;;;3.28;;
56239;SDS011;42154;51.992;5.896;2023-04-24T10:01:04;7.60;;;3.00;;
56239;SDS011;42154;51.992;5.896;2023-04-24T10:03:30;10.30;;;3.65;;
56239;SDS011;42154;51.992;5.896;2023-04-24T10:06:00;9.88;;;3.65;;
56239;SDS011;42154;51.992;5.896;2023-04-24T10:08:33;9.85;;;3.58;;
56239;SDS011;42154;51.992;5.896;2023-04-24T10:10:59;13.73;;;4.38;;
56239;SDS011;42154;51.992;5.896;2023-04-24T10:13:26;9.43;;;2.88;;
56239;SDS011;42154;51.992;5.896;2023-04-24T10:15:52;12.32;;;3.00;;
56239;SDS011;42154;51.992;5.896;2023-04-24T10:18:19;8.43;;;3.20;;
56239;SDS011;42154;51.992;5.896;2023-04-24T10:20:46;6.70;;;2.58;;
56239;SDS011;42154;51.992;5.896;2023-04-24T10:23:12;7.55;;;2.72;;
56239;SDS011;42154;51.992;5.896;2023-04-24T10:25:38;8.10;;;2.75;;
56239;SDS011;42154;51.992;5.896;2023-04-24T10:28:04;10.10;;;2.97;;
56239;SDS011;42154;51.992;5.896;2023-04-24T10:30:31;11.50;;;3.67;;
56239;SDS011;42154;51.992;5.896;2023-04-24T10:33:04;7.10;;;3.10;;
56239;SDS011;42154;51.992;5.896;2023-04-24T10:35:34;13.77;;;2.88;;
56239;SDS011;42154;51.992;5.896;2023-04-24T10:38:08;8.85;;;2.90;;
56239;SDS011;42154;51.992;5.896;2023-04-24T10:40:37;11.73;;;3.10;;
56239;SDS011;42154;51.992;5.896;2023-04-24T10:43:03;10.15;;;3.13;;
56239;SDS011;42154;51.992;5.896;2023-04-24T10:45:35;6.63;;;2.47;;
56239;SDS011;42154;51.992;5.896;2023-04-24T10:48:03;9.55;;;2.92;;
56239;SDS011;42154;51.992;5.896;2023-04-24T10:50:51;10.43;;;2.60;;
56239;SDS011;42154;51.992;5.896;2023-04-24T10:53:22;7.40;;;2.17;;
56239;SDS011;42154;51.992;5.896;2023-04-24T10:55:49;7.10;;;2.30;;
56239;SDS011;42154;51.992;5.896;2023-04-24T10:58:22;8.38;;;2.40;;
56239;SDS011;42154;51.992;5.896;2023-04-24T11:00:58;5.78;;;1.77;;
56239;SDS011;42154;51.992;5.896;2023-04-24T11:03:25;10.20;;;2.10;;
56239;SDS011;42154;51.992;5.896;2023-04-24T11:05:56;8.60;;;2.47;;
56239;SDS011;42154;51.992;5.896;2023-04-24T11:08:26;7.70;;;2.20;;
56239;SDS011;42154;51.992;5.896;2023-04-24T11:11:06;7.47;;;2.08;;
56239;SDS011;42154;51.992;5.896;2023-04-24T11:16:25;6.85;;;1.88;;
56239;SDS011;42154;51.992;5.896;2023-04-24T11:19:04;7.00;;;1.70;;
56239;SDS011;42154;51.992;5.896;2023-04-24T11:21:36;4.28;;;1.58;;
56239;SDS011;42154;51.992;5.896;2023-04-24T11:24:23;4.35;;;1.40;;
56239;SDS011;42154;51.992;5.896;2023-04-24T11:26:54;4.68;;;1.40;;
56239;SDS011;42154;51.992;5.896;2023-04-24T11:29:21;3.08;;;1.02;;
56239;SDS011;42154;51.992;5.896;2023-04-24T11:31:48;2.95;;;1.20;;
56239;SDS011;42154;51.992;5.896;2023-04-24T11:34:16;3.33;;;1.20;;
56239;SDS011;42154;51.992;5.896;2023-04-24T11:36:45;2.40;;;1.00;;
56239;SDS011;42154;51.992;5.896;2023-04-24T11:39:13;4.87;;;0.87;;
56239;SDS011;42154;51.992;5.896;2023-04-24T11:41:39;2.55;;;0.95;;
56239;SDS011;42154;51.992;5.896;2023-04-24T11:44:08;3.35;;;0.75;;
56239;SDS011;42154;51.992;5.896;2023-04-24T11:46:34;3.95;;;0.90;;
56239;SDS011;42154;51.992;5.896;2023-04-24T11:49:00;1.85;;;1.27;;
56239;SDS011;42154;51.992;5.896;2023-04-24T11:51:26;4.07;;;0.80;;
56239;SDS011;42154;51.992;5.896;2023-04-24T11:53:53;3.45;;;0.60;;
56239;SDS011;42154;51.992;5.896;2023-04-24T11:56:23;3.67;;;0.88;;
56239;SDS011;42154;51.992;5.896;2023-04-24T11:58:53;4.10;;;0.77;;
56239;SDS011;42154;51.992;5.896;2023-04-24T12:01:20;2.45;;;0.70;;
56239;SDS011;42154;51.992;5.896;2023-04-24T12:03:49;1.90;;;0.50;;
56239;SDS011;42154;51.992;5.896;2023-04-24T12:06:16;5.57;;;0.70;;
56239;SDS011;42154;51.992;5.896;2023-04-24T12:08:45;2.65;;;0.82;;
56239;SDS011;42154;51.992;5.896;2023-04-24T12:11:14;1.75;;;0.52;;
56239;SDS011;42154;51.992;5.896;2023-04-24T12:13:42;3.35;;;0.68;;
56239;SDS011;42154;51.992;5.896;2023-04-24T12:16:09;3.95;;;0.70;;
56239;SDS011;42154;51.992;5.896;2023-04-24T12:18:34;4.75;;;1.15;;
56239;SDS011;42154;51.992;5.896;2023-04-24T12:23:44;3.90;;;0.95;;
56239;SDS011;42154;51.992;5.896;2023-04-24T12:26:11;4.97;;;1.20;;
56239;SDS011;42154;51.992;5.896;2023-04-24T12:28:45;2.47;;;0.93;;
56239;SDS011;42154;51.992;5.896;2023-04-24T12:31:13;1.40;;;0.70;;
56239;SDS011;42154;51.992;5.896;2023-04-24T12:33:39;3.15;;;0.80;;
56239;SDS011;42154;51.992;5.896;2023-04-24T12:36:04;1.40;;;0.50;;
56239;SDS011;42154;51.992;5.896;2023-04-24T12:38:31;3.80;;;1.13;;
56239;SDS011;42154;51.992;5.896;2023-04-24T12:41:06;3.38;;;0.80;;
56239;SDS011;42154;51.992;5.896;2023-04-24T12:43:33;4.85;;;0.75;;
56239;SDS011;42154;51.992;5.896;2023-04-24T12:46:00;3.08;;;0.70;;
56239;SDS011;42154;51.992;5.896;2023-04-24T12:48:26;4.43;;;0.70;;
56239;SDS011;42154;51.992;5.896;2023-04-24T12:50:52;2.83;;;0.70;;
56239;SDS011;42154;51.992;5.896;2023-04-24T12:53:18;1.83;;;0.70;;
56239;SDS011;42154;51.992;5.896;2023-04-24T12:55:45;2.40;;;0.60;;
56239;SDS011;42154;51.992;5.896;2023-04-24T12:58:12;1.83;;;0.55;;
56239;SDS011;42154;51.992;5.896;2023-04-24T13:00:38;2.72;;;0.68;;
56239;SDS011;42154;51.992;5.896;2023-04-24T13:03:04;1.23;;;0.57;;
56239;SDS011;42154;51.992;5.896;2023-04-24T13:05:30;1.95;;;0.80;;
56239;SDS011;42154;51.992;5.896;2023-04-24T13:07:56;1.83;;;0.70;;
56239;SDS011;42154;51.992;5.896;2023-04-24T13:10:22;3.10;;;0.70;;
56239;SDS011;42154;51.992;5.896;2023-04-24T13:12:48;2.83;;;0.65;;
56239;SDS011;42154;51.992;5.896;2023-04-24T13:15:14;3.83;;;0.70;;
56239;SDS011;42154;51.992;5.896;2023-04-24T13:17:40;3.38;;;0.68;;
56239;SDS011;42154;51.992;5.896;2023-04-24T13:20:06;4.35;;;0.80;;
56239;SDS011;42154;51.992;5.896;2023-04-24T13:22:32;4.28;;;1.00;;
56239;SDS011;42154;51.992;5.896;2023-04-24T13:24:58;2.20;;;0.80;;
56239;SDS011;42154;51.992;5.896;2023-04-24T13:27:24;5.22;;;0.98;;
56239;SDS011;42154;51.992;5.896;2023-04-24T13:29:50;4.55;;;0.90;;
56239;SDS011;42154;51.992;5.896;2023-04-24T13:32:16;3.25;;;0.90;;
56239;SDS011;42154;51.992;5.896;2023-04-24T13:34:42;3.25;;;1.20;;
56239;SDS011;42154;51.992;5.896;2023-04-24T13:37:08;5.45;;;1.30;;
56239;SDS011;42154;51.992;5.896;2023-04-24T13:39:34;4.70;;;1.10;;
56239;SDS011;42154;51.992;5.896;2023-04-24T13:42:00;6.97;;;1.38;;
56239;SDS011;42154;51.992;5.896;2023-04-24T13:44:26;4.97;;;1.55;;
56239;SDS011;42154;51.992;5.896;2023-04-24T13:46:52;7.63;;;1.20;;
56239;SDS011;42154;51.992;5.896;2023-04-24T13:49:21;5.25;;;1.35;;
56239;SDS011;42154;51.992;5.896;2023-04-24T13:51:50;4.95;;;1.17;;
56239;SDS011;42154;51.992;5.896;2023-04-24T13:54:17;6.63;;;1.70;;
56239;SDS011;42154;51.992;5.896;2023-04-24T13:56:42;5.45;;;1.25;;
56239;SDS011;42154;51.992;5.896;2023-04-24T13:59:08;7.97;;;1.83;;
56239;SDS011;42154;51.992;5.896;2023-04-24T14:01:34;8.10;;;1.67;;
56239;SDS011;42154;51.992;5.896;2023-04-24T14:04:01;7.82;;;1.83;;
56239;SDS011;42154;51.992;5.896;2023-04-24T14:06:26;6.45;;;1.70;;
56239;SDS011;42154;51.992;5.896;2023-04-24T14:08:52;5.63;;;1.45;;
56239;SDS011;42154;51.992;5.896;2023-04-24T14:11:18;5.38;;;1.65;;
56239;SDS011;42154;51.992;5.896;2023-04-24T14:13:45;6.28;;;1.70;;
56239;SDS011;42154;51.992;5.896;2023-04-24T14:16:11;4.22;;;1.63;;
56239;SDS011;42154;51.992;5.896;2023-04-24T14:18:37;4.38;;;1.63;;
56239;SDS011;42154;51.992;5.896;2023-04-24T14:21:03;5.53;;;1.95;;
56239;SDS011;42154;51.992;5.896;2023-04-24T14:23:29;7.32;;;1.77;;
56239;SDS011;42154;51.992;5.896;2023-04-24T14:25:55;4.97;;;1.55;;
56239;SDS011;42154;51.992;5.896;2023-04-24T14:28:22;8.98;;;2.20;;
56239;SDS011;42154;51.992;5.896;2023-04-24T14:30:48;8.52;;;1.92;;
56239;SDS011;42154;51.992;5.896;2023-04-24T14:33:14;8.43;;;2.25;;
56239;SDS011;42154;51.992;5.896;2023-04-24T14:35:40;5.50;;;1.55;;
56239;SDS011;42154;51.992;5.896;2023-04-24T14:38:07;7.03;;;2.22;;
56239;SDS011;42154;51.992;5.896;2023-04-24T14:40:33;8.40;;;2.08;;
56239;SDS011;42154;51.992;5.896;2023-04-24T14:42:59;9.43;;;2.38;;
56239;SDS011;42154;51.992;5.896;2023-04-24T14:45:25;9.30;;;2.08;;
56239;SDS011;42154;51.992;5.896;2023-04-24T14:47:52;7.57;;;2.13;;
56239;SDS011;42154;51.992;5.896;2023-04-24T14:50:18;8.30;;;2.22;;